เยรูซาเลม, ประเทศอิสราเอล

11:01 PM IDT วัน พฤษภาคม 29, 2015 (GMT +0300)
IISRAELG2 | | Change Station
CLOSE
Current Station
Personal Weather Stations
Location: Givat Zeev, ISRAEL
Elevation: 2543 ft
Nearby Weather Stations

Elev 2543 ft 31.86 °N, 35.16 °E | Updated 2 seconds ago

Haze
เมฆหมอก
59.6 ฟาเรนไฮน์
Feels Like 59.6 ฟาเรนไฮน์
N
7.0
ลม ความผันแปร ลม from ทางทิศตะวันตก
Gusts 10.0 mph

วันนี้
High -- | Low -- ฟาเรนไฮน์
--% Chance of Precip.
Yesterday
High -- | Low -- ฟาเรนไฮน์
Precip. -- นิ้ว
5:35 AM 7:37 PM
ข้างขึ้น, 85% visible
ความดัน 29.95 นิ้ว
ทัศนวิสัย 3.1 ไมล์
เมฆ มีเมฆคลุมเป็นบางส่วน 2500 ft
อุณหภูมิที่อากาศอาจจับตัวเป็นหยาดน้ำค้าง 58 ฟาเรนไฮน์
ความชื้น 94%
Rainfall 0.00 นิ้ว
Snow Depth Not available.
UV 0 out of 12
Pollen Not available.
Air Quality Not available.
Flu Activity Not available.
METAR OJAM 292000Z 27007KT 5000 HZ SCT025 17/09 Q1014 NOSIG

More Conditions Fewer Conditions

ความดัน 29.95 นิ้ว
ทัศนวิสัย 3.1 ไมล์
เมฆ มีเมฆคลุมเป็นบางส่วน 2500 ft
อุณหภูมิที่อากาศอาจจับตัวเป็นหยาดน้ำค้าง 58 ฟาเรนไฮน์
ความชื้น 94%
Rainfall 0.00 นิ้ว
Snow Depth Not available.
UV 0 out of 12
Pollen Not available.
Air Quality Not available.
Flu Activity Not available.
METAR OJAM 292000Z 27007KT 5000 HZ SCT025 17/09 Q1014 NOSIG

More Conditions Fewer Conditions

10-Day Weather Forecast

Almanac

ดาราศาสตร์

May. 29, 2015 Rise Set
Actual Time
Civil Twilight
Nautical Twilight
Astronomical Twilight
Moon
Length Of Visible Light
ความยาวของวัน
Tomorrow will be .
, % of the Moon is Illuminated

Today's Extremes

Country Highs Country Lows

Community

WunderPhotos

Upload Photos

1,825,331 photos uploaded!

WunderBlogs® & News

Nearby

Air Quality

  Air Quality AQ Index Pollutant
Not available.

Snow Depth

Station Depth Elevation

Earthquake Activity

City Distance Mag. Time & Date
Minimum magnitude displayed is 2.5.

Coastal Water Temperatures

สถานที่ อุณหภูมิ

Stations

Nearby Weather Stations

Station Location Temp ลมหนาว อุณหภูมิที่อากาศอาจจับตัวเป็นหยาดน้ำค้าง ความชื้น ลม Precip. Elev ปรับปรุงล่าสุด Type